createdAt,value
2023-05-15T00:02:02.578Z,48.14
2023-05-15T00:07:05.360Z,48.20
2023-05-15T00:12:10.276Z,48.38
2023-05-15T00:17:13.273Z,48.41
2023-05-15T00:22:16.061Z,48.68
2023-05-15T00:27:20.419Z,48.78
2023-05-15T00:32:23.305Z,49.04
2023-05-15T00:37:27.872Z,49.52
2023-05-15T00:42:32.385Z,49.45
2023-05-15T00:47:35.271Z,49.74
2023-05-15T00:52:38.186Z,49.60
2023-05-15T00:57:42.685Z,49.69
2023-05-15T01:02:46.261Z,49.98
2023-05-15T01:07:53.543Z,50.27
2023-05-15T01:12:57.711Z,50.27
2023-05-15T01:18:00.651Z,50.26
2023-05-15T01:23:11.964Z,50.43
2023-05-15T01:28:18.744Z,50.23
2023-05-15T01:33:24.273Z,50.64
2023-05-15T01:38:35.852Z,50.79
2023-05-15T01:43:40.955Z,51.00
2023-05-15T01:48:44.531Z,51.24
2023-05-15T01:53:47.738Z,51.27
2023-05-15T01:58:51.882Z,51.69
2023-05-15T02:03:55.458Z,51.92
2023-05-15T02:08:58.527Z,51.68
2023-05-15T02:14:02.712Z,51.95
2023-05-15T02:19:05.547Z,52.18
2023-05-15T02:24:08.495Z,52.32
2023-05-15T02:29:17.051Z,52.49
2023-05-15T02:34:25.782Z,52.55
2023-05-15T02:39:28.572Z,52.45
2023-05-15T02:44:32.749Z,52.51
2023-05-15T02:49:35.744Z,52.52
2023-05-15T02:54:38.531Z,52.72
2023-05-15T02:59:42.859Z,52.86
2023-05-15T03:04:46.465Z,52.97
2023-05-15T03:09:50.812Z,52.80
2023-05-15T03:14:54.991Z,53.27
2023-05-15T03:19:57.807Z,53.04
2023-05-15T03:25:01.883Z,53.20
2023-05-15T03:30:07.750Z,52.84
2023-05-15T03:35:11.551Z,52.65
2023-05-15T03:40:15.288Z,52.27
2023-05-15T03:45:19.480Z,52.43
2023-05-15T03:50:23.807Z,52.18
2023-05-15T03:55:26.870Z,52.12
2023-05-15T04:00:31.245Z,52.01
2023-05-15T04:05:34.047Z,52.01
2023-05-15T04:10:36.909Z,52.09
2023-05-15T04:15:41.439Z,51.89
2023-05-15T04:20:44.244Z,51.70
2023-05-15T04:25:47.300Z,51.59
2023-05-15T04:30:51.609Z,51.55
2023-05-15T04:35:54.553Z,51.60
2023-05-15T04:40:57.327Z,51.67
2023-05-15T04:46:01.476Z,51.47
2023-05-15T04:51:04.307Z,51.47
2023-05-15T04:56:07.356Z,51.21
2023-05-15T05:01:11.585Z,51.22
2023-05-15T05:06:14.368Z,51.15
2023-05-15T05:11:17.142Z,51.08
2023-05-15T05:16:21.341Z,51.23
2023-05-15T05:21:24.217Z,50.84
2023-05-15T05:26:27.560Z,50.99
2023-05-15T05:31:31.886Z,50.84
2023-05-15T05:36:36.907Z,50.76
2023-05-15T05:41:39.829Z,50.71
2023-05-15T05:46:45.247Z,50.60
2023-05-15T05:51:48.072Z,50.72
2023-05-15T05:56:50.882Z,50.61
2023-05-15T06:01:55.500Z,50.40
2023-05-15T06:06:58.434Z,50.57
2023-05-15T06:12:04.579Z,50.53
2023-05-15T06:17:09.033Z,50.35
2023-05-15T06:22:12.028Z,50.51
2023-05-15T06:27:14.937Z,50.32
2023-05-15T06:32:19.112Z,50.25
2023-05-15T06:37:22.296Z,50.32
2023-05-15T06:42:25.104Z,50.19
2023-05-15T06:47:29.323Z,50.40
2023-05-15T06:52:32.278Z,50.28
2023-05-15T06:57:35.151Z,47.38
2023-05-15T07:02:39.338Z,48.53
2023-05-15T07:07:42.737Z,48.73
2023-05-15T07:12:45.981Z,48.48
2023-05-15T07:17:50.315Z,49.09
2023-05-15T07:22:56.684Z,48.40
2023-05-15T07:27:59.776Z,48.78
2023-05-15T07:33:04.495Z,49.05
2023-05-15T07:38:08.045Z,48.94
2023-05-15T07:43:10.861Z,49.78
2023-05-15T07:48:18.367Z,49.04
2023-05-15T07:53:21.755Z,49.90
2023-05-15T07:58:24.573Z,48.05
2023-05-15T08:03:29.119Z,47.97
2023-05-15T08:08:32.020Z,47.84
2023-05-15T08:13:34.794Z,48.36
2023-05-15T08:18:38.948Z,48.61
2023-05-15T08:23:41.950Z,49.22
2023-05-15T08:28:44.936Z,49.67
2023-05-15T08:33:49.079Z,49.40
2023-05-15T08:38:51.875Z,48.56
2023-05-15T08:43:54.632Z,48.55
2023-05-15T08:48:58.807Z,46.64
2023-05-15T08:54:04.548Z,47.13
2023-05-15T08:59:07.426Z,47.19
2023-05-15T09:04:11.710Z,47.25
2023-05-15T09:09:14.536Z,45.96
2023-05-15T09:14:17.339Z,45.14
2023-05-15T09:19:22.507Z,44.05
2023-05-15T09:24:28.283Z,43.23
2023-05-15T09:29:31.179Z,43.04
2023-05-15T09:34:35.932Z,43.06
2023-05-15T09:39:41.779Z,41.16
2023-05-15T09:44:45.165Z,40.48
2023-05-15T09:49:49.344Z,42.27
2023-05-15T09:54:52.187Z,41.77
2023-05-15T09:59:55.093Z,40.73
2023-05-15T10:04:59.744Z,40.50
2023-05-15T10:10:03.525Z,40.91
2023-05-15T10:15:07.455Z,39.91
2023-05-15T10:20:12.590Z,38.58
2023-05-15T10:25:17.797Z,38.60
2023-05-15T10:30:20.940Z,40.03
2023-05-15T10:35:25.419Z,38.66
2023-05-15T10:40:28.314Z,37.89
2023-05-15T10:45:31.325Z,39.49
2023-05-15T10:50:37.524Z,38.60
2023-05-15T10:55:40.529Z,38.64
2023-05-15T11:00:44.065Z,36.97
2023-05-15T11:06:10.780Z,37.25
2023-05-15T11:11:55.798Z,37.86
2023-05-15T11:16:59.873Z,38.74
2023-05-15T11:22:09.734Z,35.84
2023-05-15T11:27:13.597Z,37.49
2023-05-15T11:32:56.355Z,35.89
2023-05-15T11:38:01.155Z,36.47
2023-05-15T11:43:05.570Z,35.29
2023-05-15T11:48:09.119Z,35.52
2023-05-15T11:53:13.743Z,35.32
2023-05-15T11:58:17.400Z,35.46
2023-05-15T12:03:24.966Z,36.66
2023-05-15T12:08:32.620Z,37.76
2023-05-15T12:13:35.498Z,38.39
2023-05-15T12:18:38.567Z,38.61
2023-05-15T12:23:48.721Z,38.92
2023-05-15T12:28:59.338Z,39.53
2023-05-15T12:34:02.505Z,39.84
2023-05-15T12:39:08.182Z,40.28
2023-05-15T12:44:17.321Z,40.48
2023-05-15T12:49:23.668Z,40.68
2023-05-15T12:54:27.967Z,40.52
2023-05-15T12:59:31.090Z,40.90
2023-05-15T13:09:38.399Z,41.86
2023-05-15T13:14:42.882Z,41.66
2023-05-15T13:19:45.676Z,42.13
2023-05-15T13:24:49.937Z,43.05
2023-05-15T13:29:52.809Z,43.86
2023-05-15T13:34:57.872Z,43.91
2023-05-15T13:40:02.197Z,43.92
2023-05-15T13:45:06.255Z,43.79
2023-05-15T13:50:09.948Z,44.13
2023-05-15T13:55:14.234Z,44.37
2023-05-15T14:00:18.621Z,44.82
2023-05-15T14:05:21.680Z,44.53
2023-05-15T14:10:26.490Z,44.34
2023-05-15T14:15:29.586Z,44.29
2023-05-15T14:20:32.484Z,44.35
2023-05-15T14:25:36.862Z,44.16
2023-05-15T14:30:39.792Z,44.09
2023-05-15T14:35:42.703Z,43.91
2023-05-15T14:40:47.006Z,43.88
2023-05-15T14:45:49.823Z,43.46
2023-05-15T14:50:52.717Z,42.75
2023-05-15T14:55:58.594Z,42.87
2023-05-15T15:01:02.131Z,42.86
2023-05-15T15:06:05.540Z,42.84
2023-05-15T15:11:10.365Z,42.60
2023-05-15T15:16:13.340Z,42.73
2023-05-15T15:21:16.281Z,41.71
2023-05-15T15:26:21.614Z,42.06
2023-05-15T15:31:24.456Z,42.51
2023-05-15T15:36:27.363Z,42.55
2023-05-15T15:41:32.650Z,39.38
2023-05-15T15:46:35.575Z,38.73
2023-05-15T15:51:38.461Z,40.04
2023-05-15T15:56:42.948Z,40.95
2023-05-15T16:01:46.339Z,40.90
2023-05-15T16:06:49.198Z,40.06
2023-05-15T16:11:54.670Z,38.85
2023-05-15T16:16:57.586Z,39.83
2023-05-15T16:22:00.535Z,39.93
2023-05-15T16:27:04.955Z,40.53
2023-05-15T16:32:08.402Z,39.22
2023-05-15T16:37:11.352Z,38.73
2023-05-15T16:42:15.670Z,37.77
2023-05-15T16:47:18.437Z,37.41
2023-05-15T16:52:21.463Z,36.77
2023-05-15T16:57:26.145Z,36.09
2023-05-15T17:02:29.216Z,37.05
2023-05-15T17:07:32.165Z,37.57
2023-05-15T17:12:36.409Z,37.92
2023-05-15T17:17:39.498Z,37.80
2023-05-15T17:22:42.467Z,38.18
2023-05-15T17:27:46.999Z,38.61
2023-05-15T17:32:50.000Z,38.94
2023-05-15T17:37:53.142Z,39.32
2023-05-15T17:42:57.359Z,39.54
2023-05-15T17:48:03.681Z,39.71
2023-05-15T17:53:06.764Z,39.96
2023-05-15T17:58:11.115Z,40.12
2023-05-15T18:03:14.052Z,40.24
2023-05-15T18:08:17.036Z,40.50
2023-05-15T18:13:21.325Z,40.89
2023-05-15T18:18:24.402Z,40.93
2023-05-15T18:23:27.564Z,41.06
2023-05-15T18:28:32.755Z,41.24
2023-05-15T18:33:35.792Z,41.58
2023-05-15T18:38:38.968Z,41.36
2023-05-15T18:43:43.334Z,41.75
2023-05-15T18:48:46.212Z,41.84
2023-05-15T18:53:49.071Z,41.99
2023-05-15T18:58:54.706Z,42.16
2023-05-15T19:03:57.765Z,42.08
2023-05-15T19:09:00.647Z,42.36
2023-05-15T19:14:05.216Z,42.32
2023-05-15T19:19:08.443Z,42.45
2023-05-15T19:24:11.745Z,42.15
2023-05-15T19:29:15.971Z,42.15
2023-05-15T19:34:18.982Z,42.07
2023-05-15T19:39:21.828Z,41.92
2023-05-15T19:44:26.092Z,42.30
2023-05-15T19:49:28.947Z,42.25
2023-05-15T19:54:31.765Z,42.54
2023-05-15T19:59:35.963Z,42.65
2023-05-15T20:04:38.807Z,42.79
2023-05-15T20:09:41.610Z,42.87
2023-05-15T20:14:50.602Z,43.00
2023-05-15T20:19:53.883Z,42.98
2023-05-15T20:24:56.676Z,42.96
2023-05-15T20:30:01.846Z,42.75
2023-05-15T20:35:05.223Z,43.07
2023-05-15T20:40:11.109Z,42.94
2023-05-15T20:45:15.386Z,42.92
2023-05-15T20:50:18.760Z,43.08
2023-05-15T20:55:21.684Z,43.38
2023-05-15T21:00:25.950Z,43.43
2023-05-15T21:05:29.025Z,43.37
2023-05-15T21:10:31.801Z,43.66
2023-05-15T21:15:35.961Z,43.78
2023-05-15T21:20:38.958Z,43.71
2023-05-15T21:25:43.096Z,43.80
2023-05-15T21:30:47.376Z,44.08
2023-05-15T21:35:51.244Z,44.17
2023-05-15T21:40:54.354Z,44.21
2023-05-15T21:45:58.791Z,44.15
2023-05-15T21:51:01.737Z,44.19
2023-05-15T21:56:04.934Z,44.62
2023-05-15T22:01:09.222Z,44.78
2023-05-15T22:06:12.040Z,45.17
2023-05-15T22:11:15.357Z,45.16
2023-05-15T22:16:19.626Z,45.34
2023-05-15T22:21:22.459Z,45.31
2023-05-15T22:26:25.407Z,45.43
2023-05-15T22:31:29.552Z,45.52
2023-05-15T22:36:35.041Z,45.79
2023-05-15T22:41:37.919Z,45.96
2023-05-15T22:46:42.414Z,46.25
2023-05-15T22:51:45.378Z,46.35
2023-05-15T22:56:48.230Z,46.46
2023-05-15T23:01:52.489Z,46.57
2023-05-15T23:06:55.678Z,46.47
2023-05-15T23:11:58.547Z,46.70
2023-05-15T23:17:02.782Z,46.79
2023-05-15T23:22:05.837Z,47.00
2023-05-15T23:27:08.716Z,47.28
2023-05-15T23:32:13.478Z,47.80
2023-05-15T23:37:16.653Z,47.79
2023-05-15T23:42:19.547Z,47.79
2023-05-15T23:47:23.658Z,48.13
2023-05-15T23:52:26.637Z,47.93
2023-05-15T23:57:29.444Z,48.14
